• Join FlightAware (Why Join?)
  • Login
  • US Flag 
09:06PM EDT


 

Airport Tracker/Info


-or-


 

Live Flight TrackerFlight Track Log ✈ N200NK ✈ 09-Jul-2014 ✈ KFLL - MNMG / MGA

Flight Track Log - Related Links

Times and Time Zones

All times are in EDT time to prevent confusion due to time zone crossing. See the N200NK flight status page for this flight to view local times or setup timezone preferences in your user account.

Time Position Orientation Groundspeed Altitude Reporting Facility
EDT Latitude Longitude Course Direction KTS MPH feet Rate Location/Type
12:14PM 26.0756 -80.1381 103° East 150 173 500  Level Miami Center
12:15PM 26.0692 -80.1075 103° East 156 180 1,600 1,320 Climbing Miami Center
12:16PM 26.0631 -80.0775 103° East 157 181 2,400 1,380 Climbing Miami Center
12:16PM 26.0575 -80.0600 109° East 175 201 2,900 1,740 Climbing Miami Center
12:17PM 26.0261 -80.0325 142° Southeast 174 200 4,200 1,440 Climbing Miami Center
12:17PM 26.0194 -80.0294 158° South 174 200 4,400 1,500 Climbing Miami Center
12:18PM 25.9731 -80.0006 151° Southeast 174 200 6,000 1,380 Climbing Miami Center
12:19PM 25.9406 -79.9789 149° Southeast 176 203 7,000 1,260 Climbing Miami Center
12:20PM 25.8861 -79.9847 186° South 179 206 8,600 1,200 Climbing Miami Center
12:21PM 25.8517 -80.0064 210° Southwest 178 205 9,600 1,260 Climbing Miami Center
12:22PM 25.8081 -80.0350 211° Southwest 179 206 11,100 1,680 Climbing Miami Center
12:23PM 25.7533 -80.0672 208° Southwest 164 189 13,200 1,560 Climbing Miami Center
12:24PM 25.7153 -80.0867 205° Southwest 170 196 14,400 1,260 Climbing Miami Center
12:25PM 25.6658 -80.0969 191° South 176 203 15,800 720 Climbing Miami Center
12:26PM 25.6083 -80.1103 192° South 216 249 16,000 60 Climbing Miami Center
12:27PM 25.5358 -80.1281 192° South 260 299 16,000 120 Level Miami Center
12:28PM 25.4592 -80.1472 193° South 275 316 16,300 1,020 Climbing Miami Center
12:29PM 25.3939 -80.1622 192° South 235 270 18,200 1,740 Climbing Miami Center
12:30PM 25.3369 -80.1825 198° South 183 211 19,900 1,260 Climbing Miami Center
12:31PM 25.3122 -80.2308 241° Southwest 179 206 20,900 480 Climbing Miami Center
12:32PM 25.2839 -80.2842 240° Southwest 202 232 21,000  Climbing Miami Center
12:33PM 25.2517 -80.3525 242° Southwest 247 284 21,000  Level Miami Center
12:35PM 25.2175 -80.4250 242° Southwest 260 299 21,000  Level Miami Center
12:36PM 25.1631 -80.4814 223° Southwest 274 315 21,000  Level Miami Center
12:37PM 25.0739 -80.5033 193° South 275 316 21,000  Level Miami Center
12:38PM 25.0003 -80.5272 196° South 276 318 21,000  Level Miami Center
12:39PM 24.9289 -80.5617 204° Southwest 276 318 21,000  Level Miami Center
12:40PM 24.8606 -80.5953 204° Southwest 272 313 21,000  Level Miami Center
12:41PM 24.7900 -80.6281 203° Southwest 272 313 21,000  Level Miami Center
12:42PM 24.7042 -80.6681 203° Southwest 279 321 21,000  Level Miami Center
12:43PM 24.6339 -80.7011 203° Southwest 276 318 21,000  Level Miami Center
12:44PM 24.5628 -80.7358 204° Southwest 276 318 21,000  Level Miami Center
12:45PM 24.4911 -80.7681 202° Southwest 276 318 21,000  Level Miami Center
12:46PM 24.4206 -80.8025 204° Southwest 277 319 21,000  Level Miami Center
12:47PM 24.3456 -80.8372 203° Southwest 277 319 21,000  Level Miami Center
12:48PM 24.2739 -80.8700 203° Southwest 277 319 21,000  Level Miami Center
12:49PM 24.1872 -80.9111 203° Southwest 277 319 21,000  Level Miami Center
12:50PM 24.1150 -80.9461 204° Southwest 279 321 21,000  Level Miami Center
12:51PM 24.0475 -80.9783 204° Southwest 280 322 21,000  Level Miami Center
12:53PM 23.9509 -81.0227 203° Southwest  Level FlightAware Approximate
01:00PM 23.4589 -81.2485 203° Southwest  Level FlightAware Approximate
01:01PM 23.3886 -81.2806 203° Southwest  Level FlightAware Approximate
01:02PM 23.3183 -81.3127 203° Southwest  Level FlightAware Approximate
01:03PM 23.2480 -81.3448 203° Southwest  Level FlightAware Approximate
01:04PM 23.1776 -81.3768 203° Southwest  Level FlightAware Approximate
01:05PM 23.1073 -81.4088 203° Southwest  Level FlightAware Approximate
01:06PM 23.0370 -81.4408 203° Southwest  Level FlightAware Approximate
01:07PM 22.9648 -81.4672 197° South  Level FlightAware Approximate
01:08PM 22.8919 -81.4915 197° South  Level FlightAware Approximate
01:09PM 22.8190 -81.5157 197° South  Level FlightAware Approximate
01:10PM 22.7461 -81.5399 197° South  Level FlightAware Approximate
01:11PM 22.6732 -81.5640 197° South  Level FlightAware Approximate
01:12PM 22.6003 -81.5881 197° South  Level FlightAware Approximate
01:13PM 22.5273 -81.6122 197° South  Level FlightAware Approximate
01:14PM 22.4544 -81.6363 197° South  Level FlightAware Approximate
01:15PM 22.3815 -81.6603 197° South  Level FlightAware Approximate
01:16PM 22.3086 -81.6844 197° South  Level FlightAware Approximate
01:17PM 22.2356 -81.7084 197° South  Level FlightAware Approximate
01:18PM 22.1627 -81.7324 197° South  Level FlightAware Approximate
01:19PM 22.0898 -81.7563 197° South  Level FlightAware Approximate
01:20PM 22.0168 -81.7802 197° South  Level FlightAware Approximate
01:21PM 21.9439 -81.8041 197° South  Level FlightAware Approximate
01:22PM 21.8709 -81.8280 197° South  Level FlightAware Approximate
01:23PM 21.7980 -81.8518 197° South  Level FlightAware Approximate
01:24PM 21.7250 -81.8757 197° South  Level FlightAware Approximate
01:25PM 21.6520 -81.8995 197° South  Level FlightAware Approximate
01:26PM 21.5791 -81.9232 197° South  Level FlightAware Approximate
01:27PM 21.5061 -81.9470 197° South  Level FlightAware Approximate
01:28PM 21.4331 -81.9707 197° South  Level FlightAware Approximate
01:29PM 21.3601 -81.9944 197° South  Level FlightAware Approximate
01:30PM 21.2872 -82.0181 197° South  Level FlightAware Approximate
01:31PM 21.2142 -82.0418 197° South  Level FlightAware Approximate
01:32PM 21.1412 -82.0654 197° South  Level FlightAware Approximate
01:33PM 21.0682 -82.0890 197° South  Level FlightAware Approximate
01:34PM 20.9952 -82.1126 197° South  Level FlightAware Approximate
01:35PM 20.9222 -82.1362 197° South  Level FlightAware Approximate
01:36PM 20.8492 -82.1597 197° South  Level FlightAware Approximate
01:37PM 20.7762 -82.1832 197° South  Level FlightAware Approximate
01:38PM 20.7032 -82.2067 197° South  Level FlightAware Approximate
01:39PM 20.6302 -82.2302 197° South  Level FlightAware Approximate
01:40PM 20.5572 -82.2537 197° South  Level FlightAware Approximate
01:41PM 20.4842 -82.2771 197° South  Level FlightAware Approximate
01:42PM 20.4112 -82.3005 197° South  Level FlightAware Approximate
01:43PM 20.3382 -82.3239 197° South  Level FlightAware Approximate
01:44PM 20.2651 -82.3473 197° South  Level FlightAware Approximate
01:45PM 20.1921 -82.3706 197° South  Level FlightAware Approximate
01:46PM 20.1191 -82.3939 197° South  Level FlightAware Approximate
01:47PM 20.0479 -82.4141 215° Southwest  Level FlightAware Approximate
01:48PM 19.9840 -82.4580 205° Southwest  Level FlightAware Approximate
01:49PM 19.9149 -82.4923 205° Southwest  Level FlightAware Approximate
01:50PM 19.8459 -82.5267 205° Southwest  Level FlightAware Approximate
01:51PM 19.7768 -82.5610 205° Southwest  Level FlightAware Approximate
01:52PM 19.7078 -82.5953 205° Southwest  Level FlightAware Approximate
01:53PM 19.6387 -82.6296 205° Southwest  Level FlightAware Approximate
01:54PM 19.5696 -82.6638 205° Southwest  Level FlightAware Approximate
01:55PM 19.5005 -82.6980 205° Southwest  Level FlightAware Approximate
01:56PM 19.4314 -82.7322 205° Southwest  Level FlightAware Approximate
01:57PM 19.3623 -82.7663 205° Southwest  Level FlightAware Approximate
01:58PM 19.2932 -82.8005 205° Southwest  Level FlightAware Approximate
01:59PM 19.2241 -82.8345 205° Southwest  Level FlightAware Approximate
02:00PM 19.1550 -82.8686 205° Southwest  Level FlightAware Approximate
02:01PM 19.0858 -82.9026 205° Southwest  Level FlightAware Approximate
02:02PM 19.0167 -82.9366 205° Southwest  Level FlightAware Approximate
02:03PM 18.9475 -82.9706 205° Southwest  Level FlightAware Approximate
02:04PM 18.8784 -83.0045 205° Southwest  Level FlightAware Approximate
02:05PM 18.8092 -83.0385 205° Southwest  Level FlightAware Approximate
02:06PM 18.7401 -83.0723 205° Southwest  Level FlightAware Approximate
02:07PM 18.6709 -83.1062 205° Southwest  Level FlightAware Approximate
02:08PM 18.6018 -83.1400 205° Southwest  Level FlightAware Approximate
02:09PM 18.5326 -83.1739 205° Southwest  Level FlightAware Approximate
02:10PM 18.4634 -83.2076 205° Southwest  Level FlightAware Approximate
02:11PM 18.3942 -83.2414 205° Southwest  Level FlightAware Approximate
02:12PM 18.3250 -83.2751 205° Southwest  Level FlightAware Approximate
02:13PM 18.2558 -83.3088 205° Southwest  Level FlightAware Approximate
02:14PM 18.1866 -83.3425 205° Southwest  Level FlightAware Approximate
02:15PM 18.1174 -83.3761 205° Southwest  Level FlightAware Approximate
02:16PM 18.0482 -83.4097 205° Southwest  Level FlightAware Approximate
02:17PM 17.9790 -83.4433 205° Southwest  Level FlightAware Approximate
02:18PM 17.9097 -83.4769 205° Southwest  Level FlightAware Approximate
02:19PM 17.8405 -83.5104 205° Southwest  Level FlightAware Approximate
02:20PM 17.7712 -83.5439 205° Southwest  Level FlightAware Approximate
02:21PM 17.7020 -83.5774 205° Southwest  Level FlightAware Approximate
02:22PM 17.6327 -83.6109 205° Southwest  Level FlightAware Approximate
02:23PM 17.5635 -83.6443 205° Southwest  Level FlightAware Approximate
02:24PM 17.4942 -83.6777 205° Southwest  Level FlightAware Approximate
02:25PM 17.4249 -83.7111 205° Southwest  Level FlightAware Approximate
02:26PM 17.3557 -83.7445 205° Southwest  Level FlightAware Approximate
02:27PM 17.2864 -83.7778 205° Southwest  Level FlightAware Approximate
02:28PM 17.2171 -83.8111 205° Southwest  Level FlightAware Approximate
02:29PM 17.1478 -83.8444 205° Southwest  Level FlightAware Approximate
02:30PM 17.0785 -83.8776 205° Southwest  Level FlightAware Approximate
02:31PM 17.0092 -83.9109 205° Southwest  Level FlightAware Approximate
02:32PM 16.9399 -83.9441 205° Southwest  Level FlightAware Approximate
02:33PM 16.8706 -83.9772 205° Southwest  Level FlightAware Approximate
02:34PM 16.8012 -84.0104 205° Southwest  Level FlightAware Approximate
02:35PM 16.7319 -84.0435 205° Southwest  Level FlightAware Approximate
02:36PM 16.6626 -84.0766 205° Southwest  Level FlightAware Approximate
02:37PM 16.5932 -84.1096 205° Southwest  Level FlightAware Approximate
02:38PM 16.5239 -84.1427 205° Southwest  Level FlightAware Approximate
02:39PM 16.4545 -84.1757 205° Southwest  Level FlightAware Approximate
02:40PM 16.3852 -84.2087 205° Southwest  Level FlightAware Approximate
02:41PM 16.3158 -84.2418 205° Southwest  Level FlightAware Approximate
02:42PM 16.2466 -84.2750 205° Southwest  Level FlightAware Approximate
02:43PM 16.1774 -84.3083 205° Southwest  Level FlightAware Approximate
02:44PM 16.1082 -84.3415 205° Southwest  Level FlightAware Approximate
02:45PM 16.0389 -84.3747 205° Southwest  Level FlightAware Approximate
02:46PM 15.9697 -84.4079 205° Southwest  Level FlightAware Approximate
02:47PM 15.9004 -84.4411 205° Southwest  Level FlightAware Approximate
02:48PM 15.8312 -84.4743 205° Southwest  Level FlightAware Approximate
02:49PM 15.7619 -84.5074 205° Southwest  Level FlightAware Approximate
02:50PM 15.6926 -84.5405 205° Southwest  Level FlightAware Approximate
02:51PM 15.6234 -84.5736 205° Southwest  Level FlightAware Approximate
02:52PM 15.5541 -84.6066 205° Southwest  Level FlightAware Approximate
02:53PM 15.4848 -84.6396 205° Southwest  Level FlightAware Approximate
02:54PM 15.4155 -84.6727 205° Southwest  Level FlightAware Approximate
02:55PM 15.3463 -84.7057 205° Southwest  Level FlightAware Approximate
02:56PM 15.2770 -84.7386 205° Southwest  Level FlightAware Approximate
02:57PM 15.2077 -84.7716 205° Southwest  Level FlightAware Approximate
02:58PM 15.1384 -84.8045 205° Southwest  Level FlightAware Approximate
02:59PM 15.0691 -84.8374 205° Southwest  Level FlightAware Approximate
03:00PM 14.9998 -84.8703 205° Southwest  Level FlightAware Approximate
03:01PM 14.9304 -84.9031 205° Southwest  Level FlightAware Approximate
03:02PM 14.8611 -84.9360 205° Southwest  Level FlightAware Approximate
03:03PM 14.7918 -84.9688 205° Southwest  Level FlightAware Approximate
03:04PM 14.7225 -85.0017 205° Southwest  Level FlightAware Approximate
03:05PM 14.6532 -85.0345 205° Southwest  Level FlightAware Approximate
03:06PM 14.5839 -85.0674 205° Southwest  Level FlightAware Approximate
03:07PM 14.5146 -85.1002 205° Southwest  Level FlightAware Approximate
03:08PM 14.4452 -85.1329 205° Southwest  Level FlightAware Approximate
03:09PM 14.3759 -85.1657 205° Southwest  Level FlightAware Approximate
03:10PM 14.3066 -85.1984 205° Southwest  Level FlightAware Approximate
03:11PM 14.2373 -85.2311 205° Southwest  Level FlightAware Approximate
03:12PM 14.1679 -85.2638 205° Southwest  Level FlightAware Approximate
03:13PM 14.0986 -85.2965 205° Southwest  Level FlightAware Approximate
03:14PM 14.0292 -85.3292 205° Southwest  Level FlightAware Approximate
03:15PM 13.9599 -85.3618 205° Southwest  Level FlightAware Approximate
03:16PM 13.8905 -85.3944 205° Southwest  Level FlightAware Approximate
03:17PM 13.8212 -85.4270 205° Southwest  Level FlightAware Approximate
03:18PM 13.7518 -85.4596 205° Southwest  Level FlightAware Approximate
03:19PM 13.6824 -85.4921 205° Southwest  Level FlightAware Approximate
03:20PM 13.6131 -85.5247 205° Southwest  Level FlightAware Approximate
03:21PM 13.5437 -85.5572 204° Southwest  Level FlightAware Approximate
03:22PM 13.4743 -85.5897 204° Southwest  Level FlightAware Approximate
03:23PM 13.4051 -85.6225 206° Southwest  Level FlightAware Approximate
03:24PM 13.3362 -85.6561 203° Southwest  Level FlightAware Approximate
03:25PM 13.2662 -85.6873 203° Southwest  Level FlightAware Approximate
03:26PM 13.1963 -85.7184 203° Southwest  Level FlightAware Approximate
03:27PM 13.1263 -85.7495 203° Southwest  Level FlightAware Approximate
03:28PM 13.0563 -85.7805 203° Southwest  Level FlightAware Approximate
03:29PM 12.9854 -85.8092 201° Southwest  Level FlightAware Approximate
03:30PM 12.9144 -85.8376 201° Southwest  Level FlightAware Approximate
03:31PM 12.8439 -85.8675 203° Southwest  Level FlightAware Approximate
03:32PM 12.7740 -85.8986 203° Southwest  Level FlightAware Approximate
03:33PM 12.7037 -85.9290 202° Southwest  Level FlightAware Approximate
03:34PM 12.6331 -85.9584 202° Southwest  Level FlightAware Approximate
03:35PM 12.5625 -85.9879 202° Southwest  Level FlightAware Approximate
03:36PM 12.4916 -86.0167 201° Southwest  Level FlightAware Approximate
03:37PM 12.4206 -86.0451 201° Southwest  Level FlightAware Approximate
03:38PM 12.3486 -86.0676 213° Southwest  Level FlightAware Approximate
03:39PM 12.2830 -86.1068 201° Southwest  Level FlightAware Approximate
03:40PM 12.2118 -86.1345 194° South  Level FlightAware Approximate
03:41PM 12.1500 -86.1500 194° South  Level FlightAware Approximate
03:42PM 12.1415 -86.1682 194° South  Level Estimated
03:43PM 12.1415 -86.1682 194° South  Level Estimated
03:44PM 12.1415 -86.1682 194° South  Level Estimated
03:45PM 12.1415 -86.1682 194° South  Level Estimated
03:46PM 12.1415 -86.1682 194° South  Level Estimated
03:47PM 12.1415 -86.1682 194° South  Level Estimated
03:48PM 12.1415 -86.1682 194° South  Level Estimated
03:49PM 12.1415 -86.1682 194° South  Level Estimated
03:50PM 12.1415 -86.1682 194° South  Level Estimated